Airfield :







YOU CAN JOIN US ON...

 
LOGIN :

Register | Disclaimer

   EN    FR    IT 

 









Legend :    VFR   Marginal VFR   IFR   Intensive IFR   Very Intensive IFR
Visi :
Ceiling :
>= 8 km
>= 3000ft
5 to 8 km
1000 to 3000 ft
1500m to 5 km
500 to 1000 ft
800 to 1500m
200 to 500 ft
< 800m
< 200 ft
Symbols :   Thunderstorms  Fog  Heavy snow  Heavy precipitations  Wind > 20 kt






- Airport Elevation : 1009 ft
- IATA code : ORH


KORH - Worcester Regional

CURRENT METAR :
  • 080654Z AUTO 25012KT 8SM OVC070 01/M01 A2998 RMK AO2 SLP162 I1001 T00111006

EXPIRED METARs :
  • 080601Z AUTO 25015G22KT 10SM FEW007 OVC065 01/M01 A2998 RMK AO2 T00111006
  • 080454Z 24016KT 10SM BKN006 01/M01 A3001 RMK AO2 SLP174 T00061011 400281050

TAF KORH
Valid from the 08 at 06:00 until the 09 at 06:00 UTC


080520Z 0806/0906 24013KT P6SM OVC007
FM080900 26011KT P6SM OVC015
FM081200 27011KT P6SM BKN050
FM081400 29012G22KT P6SM FEW200
FM082300 28009KT P6SM SKC
KZBW FIR / North America



MET'MAP, your aeronautical weather chart ! - Copyright ORBIFLY December 2007 - Disclaimer

ORBIFLY MET'MAP TEAM :

Programming & Development : Alexandra Zaïnal
Original concept : Baudouin d'Aumeries
Technical & hardware support : Manuel Goepfert
Assistance : Marc-Olivier Méhu




SOURCES & CREDITS :

   NOAA